Time;durP1;ratioP1;P1;durP2;ratioP2;P2;SDS_P1;SDS_P2;PMS_P1;PMS_P2;Temp;Humidity;BMP_temperature;BMP_pressure;BME280_temperature;BME280_humidity;BME280_pressure;Samples;Min_cycle;Max_cycle;Signal;HPM_P1;HPM_P2
2023/05/03 00:02:38;;;;;;;17.65;7.05;;;9.20;98.50;;;;;;6219506;28;20403;-79
2023/05/03 00:05:41;;;;;;;10.65;8.93;;;9.10;98.80;;;;;;6222940;28;20087;-79
2023/05/03 00:08:43;;;;;;;10.25;7.82;;;9.00;99.10;;;;;;6223385;28;20057;-79
2023/05/03 00:11:45;;;;;;;10.48;7.35;;;9.00;99.30;;;;;;6222930;28;20053;-79
2023/05/03 00:14:47;;;;;;;8.93;8.02;;;8.90;99.50;;;;;;6221732;28;20046;-79
2023/05/03 00:17:48;;;;;;;11.52;7.72;;;8.90;99.80;;;;;;6217550;28;20054;-79
2023/05/03 00:20:52;;;;;;;10.07;7.70;;;8.80;99.90;;;;;;6215633;28;20046;-78
2023/05/03 00:23:54;;;;;;;15.65;7.45;;;8.80;99.90;;;;;;6216300;28;20065;-80
2023/05/03 00:26:55;;;;;;;25.33;9.27;;;8.80;99.90;;;;;;6227950;28;20049;-78
2023/05/03 00:29:57;;;;;;;12.45;6.63;;;8.70;99.90;;;;;;6227306;28;21274;-79
2023/05/03 00:32:59;;;;;;;7.75;6.97;;;8.70;99.90;;;;;;6215735;28;20069;-78
2023/05/03 00:36:07;;;;;;;8.98;7.35;;;8.70;99.90;;;;;;6215542;28;20058;-79
2023/05/03 00:39:08;;;;;;;10.85;7.07;;;8.70;99.90;;;;;;6216548;28;20053;-78
2023/05/03 00:42:10;;;;;;;13.02;7.93;;;8.60;99.90;;;;;;6216360;28;20061;-78
2023/05/03 00:45:12;;;;;;;11.93;7.35;;;8.60;99.90;;;;;;6214456;28;20045;-78
2023/05/03 00:48:14;;;;;;;11.63;8.55;;;8.60;99.90;;;;;;6216478;28;20080;-78
2023/05/03 00:51:19;;;;;;;11.63;7.13;;;8.60;99.90;;;;;;6240830;23;20045;-78
2023/05/03 00:54:21;;;;;;;13.10;8.43;;;8.60;99.90;;;;;;6215135;28;20080;-78
2023/05/03 00:57:23;;;;;;;12.35;7.72;;;8.60;99.90;;;;;;6209331;28;20051;-78
2023/05/03 01:00:25;;;;;;;12.75;6.88;;;8.60;99.90;;;;;;6214727;28;20058;-78
2023/05/03 01:03:27;;;;;;;20.92;9.45;;;8.60;99.90;;;;;;6213121;28;20125;-78
2023/05/03 01:06:39;;;;;;;10.90;7.85;;;8.60;99.90;;;;;;6204358;28;20524;-79
2023/05/03 01:09:49;;;;;;;10.07;6.05;;;8.50;99.90;;;;;;6204150;28;20052;-77
2023/05/03 01:12:56;;;;;;;13.57;6.93;;;8.50;99.90;;;;;;6208136;28;20053;-78
2023/05/03 01:16:05;;;;;;;9.32;7.10;;;8.50;99.90;;;;;;6203287;28;20050;-78
2023/05/03 01:19:16;;;;;;;9.85;7.30;;;8.40;99.90;;;;;;6200239;28;20050;-78
2023/05/03 01:22:27;;;;;;;11.13;7.72;;;8.30;99.90;;;;;;6198286;28;20049;-79
2023/05/03 01:25:30;;;;;;;7.63;6.03;;;8.30;99.90;;;;;;6202369;28;20050;-78
2023/05/03 01:28:32;;;;;;;10.90;6.70;;;8.30;99.90;;;;;;6201355;28;20045;-78
2023/05/03 01:31:38;;;;;;;11.73;6.78;;;8.30;99.90;;;;;;6202236;28;20065;-78
2023/05/03 01:34:45;;;;;;;9.55;7.28;;;8.20;99.90;;;;;;6201821;28;20042;-78
2023/05/03 01:37:49;;;;;;;10.07;7.85;;;8.20;99.90;;;;;;6201737;28;20457;-78
2023/05/03 01:40:55;;;;;;;9.07;7.97;;;8.20;99.90;;;;;;6198993;28;20526;-78
2023/05/03 01:43:57;;;;;;;10.80;7.32;;;8.10;99.90;;;;;;6197624;28;20103;-78
2023/05/03 01:46:59;;;;;;;10.65;7.88;;;8.10;99.90;;;;;;6198338;28;20054;-78
2023/05/03 01:50:01;;;;;;;12.65;7.30;;;8.10;99.90;;;;;;6206029;28;20042;-79
2023/05/03 01:53:03;;;;;;;11.25;7.85;;;8.10;99.90;;;;;;6203084;28;20046;-79
2023/05/03 01:56:07;;;;;;;14.85;8.13;;;8.10;99.90;;;;;;6206081;28;20108;-78
2023/05/03 01:59:09;;;;;;;8.93;8.00;;;8.00;99.90;;;;;;6202366;28;20073;-79
2023/05/03 02:02:11;;;;;;;14.32;9.15;;;8.00;99.90;;;;;;6202694;28;20054;-78
2023/05/03 02:05:13;;;;;;;11.38;7.70;;;8.00;99.90;;;;;;6205709;28;20058;-79
2023/05/03 02:08:15;;;;;;;13.65;7.75;;;7.90;99.90;;;;;;6202650;28;20054;-79
2023/05/03 02:11:18;;;;;;;14.70;8.52;;;7.90;99.90;;;;;;6207712;28;20192;-79
2023/05/03 02:14:20;;;;;;;16.13;11.77;;;7.90;99.90;;;;;;6199375;28;20038;-79
2023/05/03 02:17:25;;;;;;;12.88;9.10;;;7.90;99.90;;;;;;6198750;28;20057;-79
2023/05/03 02:20:26;;;;;;;12.50;8.73;;;7.90;99.90;;;;;;6199266;28;20165;-79
2023/05/03 02:23:28;;;;;;;11.20;8.02;;;7.80;99.90;;;;;;6199007;28;20049;-78
2023/05/03 02:26:31;;;;;;;16.17;8.63;;;7.80;99.90;;;;;;6202241;28;20408;-79
2023/05/03 02:29:33;;;;;;;9.50;7.80;;;7.70;99.90;;;;;;6201112;28;20424;-79
2023/05/03 02:32:34;;;;;;;9.63;7.85;;;7.70;99.90;;;;;;6198066;28;20416;-78
2023/05/03 02:35:36;;;;;;;13.20;8.18;;;7.60;99.90;;;;;;6196938;28;20042;-79
2023/05/03 02:38:38;;;;;;;12.77;8.38;;;7.60;99.90;;;;;;6201524;28;20061;-79
2023/05/03 02:41:41;;;;;;;18.50;10.23;;;7.60;99.90;;;;;;6200351;28;20046;-78
2023/05/03 02:44:45;;;;;;;13.15;9.18;;;7.50;99.90;;;;;;6198044;28;20153;-78
2023/05/03 02:47:46;;;;;;;10.38;8.70;;;7.50;99.90;;;;;;6203277;28;20054;-78
2023/05/03 02:50:48;;;;;;;15.95;10.25;;;7.50;99.90;;;;;;6197312;28;20046;-79
2023/05/03 02:53:50;;;;;;;12.50;8.55;;;7.40;99.90;;;;;;6202116;28;20057;-78
2023/05/03 02:56:53;;;;;;;15.52;10.98;;;7.40;99.90;;;;;;6201119;28;20128;-78
2023/05/03 02:59:54;;;;;;;13.30;8.32;;;7.40;99.90;;;;;;6201996;28;20057;-78
2023/05/03 03:02:56;;;;;;;16.65;11.80;;;7.40;99.90;;;;;;6200654;28;20046;-78
2023/05/03 03:05:58;;;;;;;11.20;8.20;;;7.30;99.90;;;;;;6199409;28;20046;-78
2023/05/03 03:08:59;;;;;;;15.00;10.07;;;7.30;99.90;;;;;;6197954;28;20052;-78
2023/05/03 03:12:02;;;;;;;14.68;10.80;;;7.30;99.90;;;;;;6196976;28;20050;-78
2023/05/03 03:15:05;;;;;;;19.65;12.57;;;7.30;99.90;;;;;;6198932;28;22916;-79
2023/05/03 03:18:07;;;;;;;16.75;9.25;;;7.20;99.90;;;;;;6200476;28;20050;-78
2023/05/03 03:21:09;;;;;;;16.00;9.95;;;7.20;99.90;;;;;;6196532;28;20050;-78
2023/05/03 03:24:10;;;;;;;15.65;9.80;;;7.20;99.90;;;;;;6197761;28;20129;-78
2023/05/03 03:27:14;;;;;;;21.33;10.32;;;7.20;99.90;;;;;;6199678;28;20054;-79
2023/05/03 03:30:15;;;;;;;16.80;12.32;;;7.10;99.90;;;;;;6201684;28;20056;-78
2023/05/03 03:33:17;;;;;;;19.80;10.85;;;7.10;99.90;;;;;;6213298;28;20421;-79
2023/05/03 03:36:19;;;;;;;16.67;9.55;;;7.10;99.90;;;;;;6211984;28;20390;-79
2023/05/03 03:39:20;;;;;;;16.23;11.43;;;7.00;99.90;;;;;;6209966;28;20065;-79
2023/05/03 03:42:24;;;;;;;14.68;10.52;;;7.00;99.90;;;;;;6217932;28;20046;-80
2023/05/03 03:45:26;;;;;;;16.02;9.93;;;6.90;99.90;;;;;;6217357;28;20058;-79
2023/05/03 03:48:27;;;;;;;18.50;11.55;;;6.90;99.90;;;;;;6214729;28;20046;-80
2023/05/03 03:51:30;;;;;;;20.08;12.25;;;6.90;99.90;;;;;;6218818;28;20053;-79
2023/05/03 03:54:33;;;;;;;17.42;10.07;;;6.90;99.90;;;;;;6211939;28;20041;-79
2023/05/03 03:57:36;;;;;;;20.00;9.90;;;6.90;99.90;;;;;;6215632;28;20078;-79
2023/05/03 04:00:38;;;;;;;16.45;9.77;;;6.80;99.90;;;;;;6219330;28;20061;-79
2023/05/03 04:03:39;;;;;;;13.80;9.82;;;6.80;99.90;;;;;;6217489;28;20057;-80
2023/05/03 04:06:41;;;;;;;13.40;9.73;;;6.80;99.90;;;;;;6212639;28;20052;-80
2023/05/03 04:09:44;;;;;;;18.92;10.07;;;6.80;99.90;;;;;;6213651;28;20062;-79
2023/05/03 04:12:47;;;;;;;16.90;11.52;;;6.70;99.90;;;;;;6212550;28;20054;-79
2023/05/03 04:15:49;;;;;;;21.55;11.70;;;6.70;99.90;;;;;;6215608;28;20057;-79
2023/05/03 04:18:51;;;;;;;16.75;10.27;;;6.70;99.90;;;;;;6217434;28;20047;-79
2023/05/03 04:21:52;;;;;;;16.13;10.82;;;6.70;99.90;;;;;;6216340;28;20559;-79
2023/05/03 04:24:54;;;;;;;16.60;10.43;;;6.80;99.90;;;;;;6217091;28;20437;-80
2023/05/03 04:27:57;;;;;;;17.35;10.48;;;6.80;99.90;;;;;;6215483;28;20049;-79
2023/05/03 04:30:59;;;;;;;15.07;10.30;;;6.80;99.90;;;;;;6211792;28;20061;-79
2023/05/03 04:34:01;;;;;;;18.90;11.38;;;6.80;99.90;;;;;;6212943;28;20046;-80
2023/05/03 04:37:03;;;;;;;17.75;11.50;;;6.80;99.90;;;;;;6221225;28;20073;-80
2023/05/03 04:40:08;;;;;;;23.58;10.35;;;6.80;99.90;;;;;;6216907;28;20042;-80
2023/05/03 04:43:11;;;;;;;17.70;9.35;;;6.90;99.90;;;;;;6221176;28;20112;-79
2023/05/03 04:46:13;;;;;;;15.30;10.93;;;7.00;99.90;;;;;;6214908;28;20045;-79
2023/05/03 04:49:15;;;;;;;18.50;9.98;;;7.10;99.90;;;;;;6216474;28;20045;-79
2023/05/03 04:52:16;;;;;;;17.30;10.50;;;7.20;99.90;;;;;;6217551;28;20063;-79
2023/05/03 04:55:18;;;;;;;19.65;11.23;;;7.40;99.90;;;;;;6219747;28;20053;-80
2023/05/03 04:58:21;;;;;;;15.10;9.90;;;7.50;99.90;;;;;;6218569;28;20080;-80
2023/05/03 05:01:26;;;;;;;18.52;10.00;;;7.70;99.90;;;;;;6217517;28;20064;-79
2023/05/03 05:04:28;;;;;;;13.40;9.90;;;7.80;99.90;;;;;;6215046;28;20042;-80
2023/05/03 05:07:30;;;;;;;15.00;10.93;;;8.00;99.90;;;;;;6216651;28;20046;-80
2023/05/03 05:10:32;;;;;;;17.20;10.00;;;8.20;99.90;;;;;;6217836;28;20038;-80
2023/05/03 05:13:35;;;;;;;14.65;9.73;;;8.40;99.90;;;;;;6223241;28;20073;-80
2023/05/03 05:16:37;;;;;;;21.17;14.23;;;8.60;99.90;;;;;;6220543;28;20057;-80
2023/05/03 05:19:38;;;;;;;16.17;10.70;;;8.70;99.90;;;;;;6220067;28;20058;-80
2023/05/03 05:22:40;;;;;;;12.00;10.43;;;9.00;99.90;;;;;;6218328;28;20049;-80
2023/05/03 05:25:42;;;;;;;12.30;9.55;;;9.20;99.90;;;;;;6217336;28;20068;-80
2023/05/03 05:28:45;;;;;;;10.95;8.82;;;9.30;99.90;;;;;;6214957;28;20301;-80
2023/05/03 05:31:47;;;;;;;14.60;8.35;;;9.60;99.90;;;;;;6220215;28;20059;-80
2023/05/03 05:34:51;;;;;;;19.15;8.80;;;9.80;99.90;;;;;;6219297;28;20058;-80
2023/05/03 05:37:53;;;;;;;13.18;7.38;;;10.10;99.90;;;;;;6231504;28;20727;-80
2023/05/03 05:40:55;;;;;;;12.70;8.50;;;10.50;99.90;;;;;;6225486;28;20050;-80
2023/05/03 05:43:58;;;;;;;17.38;8.75;;;10.90;99.90;;;;;;6229079;28;20064;-81
2023/05/03 05:46:59;;;;;;;14.75;8.80;;;11.30;99.90;;;;;;6226676;28;20523;-81
2023/05/03 05:50:02;;;;;;;19.30;9.23;;;11.70;99.90;;;;;;6227637;28;20030;-80
2023/05/03 05:53:04;;;;;;;11.70;8.57;;;12.20;99.90;;;;;;6228210;28;20089;-80
2023/05/03 05:56:07;;;;;;;11.75;7.32;;;12.70;99.90;;;;;;6224292;28;20034;-81
2023/05/03 05:59:10;;;;;;;12.63;7.97;;;13.20;99.90;;;;;;6226848;28;20050;-80
2023/05/03 06:02:16;;;;;;;12.93;7.40;;;13.50;99.90;;;;;;6223185;28;20042;-80
2023/05/03 06:05:18;;;;;;;10.63;7.95;;;13.60;99.90;;;;;;6227400;28;20097;-80
2023/05/03 06:08:20;;;;;;;11.05;7.90;;;14.00;99.90;;;;;;6228964;28;20068;-81
2023/05/03 06:11:21;;;;;;;8.98;7.00;;;14.50;99.90;;;;;;6228834;28;20061;-80
2023/05/03 06:14:24;;;;;;;9.98;7.68;;;15.00;99.90;;;;;;6226718;28;20058;-80
2023/05/03 06:17:27;;;;;;;8.25;6.60;;;15.10;99.90;;;;;;6224353;28;20073;-81
2023/05/03 06:20:28;;;;;;;11.98;7.82;;;15.00;99.60;;;;;;6222873;28;20039;-81
2023/05/03 06:23:31;;;;;;;9.90;6.25;;;14.90;99.50;;;;;;6231867;28;20053;-81
2023/05/03 06:26:33;;;;;;;15.02;7.45;;;14.90;99.40;;;;;;6227530;28;20056;-80
2023/05/03 06:29:36;;;;;;;10.23;8.00;;;14.60;98.90;;;;;;6226015;28;20056;-80
2023/05/03 06:32:39;;;;;;;13.13;7.05;;;14.40;99.50;;;;;;6216816;28;20057;-80
2023/05/03 06:35:41;;;;;;;9.88;7.97;;;14.50;99.90;;;;;;6225318;28;20072;-81
2023/05/03 06:38:43;;;;;;;13.90;7.70;;;14.40;99.40;;;;;;6229693;28;20056;-80
2023/05/03 06:41:45;;;;;;;8.88;7.55;;;14.20;99.30;;;;;;6225138;28;20124;-80
2023/05/03 06:44:48;;;;;;;12.38;8.07;;;14.00;98.90;;;;;;6224848;28;20049;-80
2023/05/03 06:47:49;;;;;;;15.07;8.43;;;14.00;99.30;;;;;;6224253;28;20058;-80
2023/05/03 06:50:51;;;;;;;10.13;7.57;;;14.20;99.90;;;;;;6228217;28;20053;-80
2023/05/03 06:53:53;;;;;;;11.70;8.00;;;14.50;99.90;;;;;;6223998;28;20044;-81
2023/05/03 06:56:54;;;;;;;8.75;6.93;;;14.90;99.30;;;;;;6226174;28;20052;-80
2023/05/03 06:59:57;;;;;;;10.63;7.32;;;15.30;99.50;;;;;;6229100;28;20060;-81
2023/05/03 07:02:59;;;;;;;9.45;7.50;;;15.80;98.40;;;;;;6227052;28;20057;-82
2023/05/03 07:06:01;;;;;;;10.32;8.07;;;16.20;97.10;;;;;;6223677;28;20050;-81
2023/05/03 07:09:03;;;;;;;9.63;7.68;;;16.50;96.20;;;;;;6224648;28;20042;-81
2023/05/03 07:12:05;;;;;;;9.95;7.20;;;16.80;95.60;;;;;;6227325;28;20062;-80
2023/05/03 07:15:09;;;;;;;9.82;7.88;;;17.30;95.40;;;;;;6221814;28;20052;-81
2023/05/03 07:18:11;;;;;;;8.75;7.45;;;18.00;93.80;;;;;;6230174;28;20069;-80
2023/05/03 07:21:13;;;;;;;13.98;9.05;;;18.30;92.50;;;;;;6227660;28;20056;-81
2023/05/03 07:24:15;;;;;;;7.50;6.57;;;18.30;91.50;;;;;;6225205;28;20106;-81
2023/05/03 07:27:16;;;;;;;8.32;7.00;;;18.60;91.10;;;;;;6228655;28;20141;-81
2023/05/03 07:30:21;;;;;;;10.93;7.97;;;18.70;90.00;;;;;;6229064;28;20114;-81
2023/05/03 07:33:22;;;;;;;8.73;6.30;;;18.60;89.70;;;;;;6227362;28;20096;-81
2023/05/03 07:36:25;;;;;;;8.52;7.65;;;19.10;89.80;;;;;;6228941;28;20050;-81
2023/05/03 07:39:26;;;;;;;9.82;7.20;;;19.40;87.50;;;;;;6226046;28;20054;-81
2023/05/03 07:42:28;;;;;;;9.63;7.53;;;19.70;86.20;;;;;;6226597;28;20053;-82
2023/05/03 07:45:31;;;;;;;14.45;7.88;;;20.10;85.10;;;;;;6227610;28;20057;-81
2023/05/03 07:48:32;;;;;;;9.45;8.15;;;20.20;83.40;;;;;;6222495;28;20413;-81
2023/05/03 07:51:35;;;;;;;11.73;7.22;;;20.20;82.20;;;;;;6217294;28;20416;-81
2023/05/03 07:55:02;;;;;;;8.35;7.55;;;20.40;82.20;;;;;;6214142;28;20049;-82
2023/05/03 07:58:03;;;;;;;10.63;7.22;;;20.90;80.30;;;;;;6215002;28;20069;-82
2023/05/03 08:01:06;;;;;;;10.25;8.23;;;20.80;79.60;;;;;;6224322;28;20582;-83
2023/05/03 08:04:08;;;;;;;15.35;8.13;;;20.70;78.90;;;;;;6215757;28;20422;-81
2023/05/03 08:07:10;;;;;;;9.10;7.95;;;20.90;79.80;;;;;;6211747;28;20503;-78
2023/05/03 08:10:12;;;;;;;8.00;6.90;;;21.30;78.10;;;;;;6214370;28;20042;-78
2023/05/03 08:13:14;;;;;;;10.70;7.50;;;21.50;77.40;;;;;;6215256;28;20116;-80
2023/05/03 08:16:17;;;;;;;9.57;8.52;;;22.00;76.60;;;;;;6217548;28;20043;-81
2023/05/03 08:19:18;;;;;;;11.45;7.18;;;22.40;75.20;;;;;;6213997;28;20053;-80
2023/05/03 08:22:20;;;;;;;9.63;6.57;;;22.70;74.30;;;;;;6214997;28;20054;-79
2023/05/03 08:25:22;;;;;;;7.55;6.78;;;22.90;72.70;;;;;;6209014;28;20061;-79
2023/05/03 08:28:25;;;;;;;7.50;5.68;;;22.90;72.40;;;;;;6212568;28;20046;-79
2023/05/03 08:31:29;;;;;;;8.02;7.32;;;23.30;71.50;;;;;;6216848;28;20057;-81
2023/05/03 08:34:31;;;;;;;9.80;7.15;;;23.50;69.80;;;;;;6212747;28;20065;-80
2023/05/03 08:37:38;;;;;;;11.13;8.02;;;23.50;70.10;;;;;;6210657;28;20060;-79
2023/05/03 08:40:40;;;;;;;11.20;7.68;;;23.60;68.40;;;;;;6206997;28;20382;-80
2023/05/03 08:43:45;;;;;;;9.52;7.50;;;23.70;68.80;;;;;;6213634;28;20520;-80
2023/05/03 08:46:48;;;;;;;9.40;6.70;;;23.60;67.70;;;;;;6218796;28;20038;-80
2023/05/03 08:49:52;;;;;;;12.20;7.40;;;23.90;67.60;;;;;;6214147;28;20054;-80
2023/05/03 08:52:54;;;;;;;10.75;8.43;;;23.90;66.50;;;;;;6212191;28;20053;-80
2023/05/03 08:55:56;;;;;;;9.18;8.27;;;23.60;66.60;;;;;;6216901;28;20053;-80
2023/05/03 08:59:06;;;;;;;18.23;9.68;;;23.10;66.00;;;;;;6208659;28;20488;-78
2023/05/03 09:02:11;;;;;;;13.73;8.00;;;22.70;66.50;;;;;;6211587;28;20054;-79
2023/05/03 09:05:32;;;;;;;9.88;7.80;;;22.30;67.30;;;;;;6203405;28;20042;-78
2023/05/03 09:08:42;;;;;;;12.80;8.38;;;22.30;67.80;;;;;;6208973;28;20053;-79
2023/05/03 09:11:44;;;;;;;10.70;7.40;;;22.40;67.40;;;;;;6214750;28;20053;-79
2023/05/03 09:14:46;;;;;;;8.50;7.70;;;22.60;67.40;;;;;;6218140;28;20049;-79
2023/05/03 09:18:07;;;;;;;9.98;8.70;;;22.40;67.30;;;;;;6209082;28;20050;-79
2023/05/03 09:21:19;;;;;;;9.13;6.85;;;22.40;67.70;;;;;;6213959;28;20062;-78
2023/05/03 09:24:21;;;;;;;8.73;7.38;;;22.60;67.90;;;;;;6221261;22;20423;-79
2023/05/03 09:27:24;;;;;;;9.32;7.95;;;23.10;67.60;;;;;;6207226;28;20049;-78
2023/05/03 09:30:26;;;;;;;9.10;7.28;;;23.30;66.20;;;;;;6207318;28;20135;-79
2023/05/03 09:33:30;;;;;;;11.30;8.43;;;23.30;66.60;;;;;;6185702;28;20042;-79
2023/05/03 09:36:46;;;;;;;13.82;7.57;;;23.40;65.60;;;;;;6187523;28;20043;-79
2023/05/03 09:39:48;;;;;;;8.38;7.20;;;23.30;66.00;;;;;;6183536;28;20051;-78
2023/05/03 09:43:07;;;;;;;11.35;8.63;;;23.30;65.70;;;;;;6186305;28;20042;-79
2023/05/03 09:46:11;;;;;;;9.23;8.38;;;22.80;65.60;;;;;;6182932;28;20046;-78
2023/05/03 09:49:14;;;;;;;8.13;7.32;;;22.50;66.00;;;;;;6183321;28;20046;-79
2023/05/03 09:52:16;;;;;;;8.85;6.85;;;22.50;66.90;;;;;;6185686;28;20061;-78
2023/05/03 09:55:18;;;;;;;9.55;7.72;;;22.60;66.80;;;;;;6188008;28;20058;-79
2023/05/03 09:58:20;;;;;;;10.35;8.23;;;22.50;66.50;;;;;;6194096;28;20137;-79
2023/05/03 10:01:24;;;;;;;9.43;8.20;;;22.20;66.10;;;;;;6191925;28;20161;-78
2023/05/03 10:04:29;;;;;;;8.70;7.72;;;21.60;67.20;;;;;;6193863;28;20053;-78
2023/05/03 10:07:32;;;;;;;10.50;7.95;;;21.50;67.60;;;;;;6193945;28;20169;-78
2023/05/03 10:10:35;;;;;;;9.63;8.27;;;21.10;67.80;;;;;;6190342;28;20049;-78
2023/05/03 10:13:36;;;;;;;9.25;8.43;;;20.60;68.70;;;;;;6191048;28;20059;-78
2023/05/03 10:16:40;;;;;;;10.80;8.18;;;20.50;69.80;;;;;;6191812;28;20049;-78
2023/05/03 10:19:51;;;;;;;15.30;7.63;;;20.70;69.80;;;;;;6191048;28;20050;-78
2023/05/03 10:23:09;;;;;;;11.75;8.30;;;20.80;69.70;;;;;;6190313;28;20058;-78
2023/05/03 10:26:15;;;;;;;8.73;7.90;;;20.60;70.30;;;;;;6190042;28;20474;-78
2023/05/03 10:29:48;;;;;;;15.40;9.43;;;20.80;71.00;;;;;;6191498;28;20042;-78
2023/05/03 10:32:50;;;;;;;8.23;7.35;;;21.10;70.60;;;;;;6192890;28;20054;-78
2023/05/03 10:35:54;;;;;;;12.55;8.50;;;21.30;69.60;;;;;;6192201;28;20058;-78
2023/05/03 10:38:57;;;;;;;11.95;7.22;;;21.40;70.40;;;;;;6190482;28;20086;-78
2023/05/03 10:42:01;;;;;;;9.70;7.25;;;21.40;70.00;;;;;;6189577;28;20049;-78
2023/05/03 10:45:06;;;;;;;9.90;7.75;;;21.40;69.70;;;;;;6192402;28;20545;-78
2023/05/03 10:48:21;;;;;;;12.13;8.65;;;21.50;69.90;;;;;;6187602;28;20050;-79
2023/05/03 10:51:35;;;;;;;9.75;8.23;;;21.50;69.60;;;;;;6190819;28;20052;-79
2023/05/03 10:54:37;;;;;;;10.38;6.85;;;21.60;70.00;;;;;;6191139;28;20133;-78
2023/05/03 10:57:41;;;;;;;13.57;8.27;;;22.20;69.90;;;;;;6191947;28;20050;-80
2023/05/03 11:00:43;;;;;;;10.90;7.10;;;22.20;67.70;;;;;;6182664;28;20077;-77
2023/05/03 11:03:55;;;;;;;10.07;8.73;;;22.00;68.50;;;;;;6187260;28;20112;-80
2023/05/03 11:07:00;;;;;;;9.60;8.02;;;22.20;67.90;;;;;;6180994;28;20046;-80
2023/05/03 11:10:15;;;;;;;9.70;7.00;;;22.20;68.30;;;;;;6184431;28;20043;-79
2023/05/03 11:13:17;;;;;;;8.73;7.78;;;22.20;68.20;;;;;;6181072;28;20177;-79
2023/05/03 11:16:19;;;;;;;10.50;6.78;;;22.20;67.60;;;;;;6181541;28;20549;-81
2023/05/03 11:19:21;;;;;;;9.32;8.40;;;22.30;68.10;;;;;;6183146;28;20050;-79
2023/05/03 11:22:24;;;;;;;10.00;7.50;;;22.70;66.90;;;;;;6180930;28;20425;-79
2023/05/03 11:25:26;;;;;;;12.98;7.72;;;22.60;67.30;;;;;;6177053;28;20051;-79
2023/05/03 11:28:28;;;;;;;9.52;7.50;;;23.00;66.80;;;;;;6176808;28;20074;-79
2023/05/03 11:31:30;;;;;;;8.93;6.35;;;23.30;66.50;;;;;;6179309;28;20054;-79
2023/05/03 11:34:32;;;;;;;8.82;6.95;;;23.60;65.90;;;;;;6180802;28;20515;-79
2023/05/03 11:37:35;;;;;;;8.68;6.35;;;23.70;65.10;;;;;;6180996;28;20038;-80
2023/05/03 11:40:38;;;;;;;7.70;6.50;;;23.60;64.50;;;;;;6185530;28;20058;-79
2023/05/03 11:43:44;;;;;;;10.50;8.48;;;23.80;64.50;;;;;;6181936;28;20050;-81
2023/05/03 11:46:46;;;;;;;9.48;5.90;;;23.70;63.20;;;;;;6179719;28;20061;-79
2023/05/03 11:49:52;;;;;;;8.07;6.68;;;23.40;63.90;;;;;;6178894;28;20050;-81
2023/05/03 11:52:56;;;;;;;13.77;6.80;;;23.50;64.50;;;;;;6180240;28;20069;-79
2023/05/03 11:55:58;;;;;;;8.93;8.02;;;23.60;63.40;;;;;;6182348;28;20510;-79
2023/05/03 11:59:00;;;;;;;8.57;7.63;;;23.50;63.40;;;;;;6180419;28;20170;-79
2023/05/03 12:02:02;;;;;;;7.57;6.88;;;23.50;63.50;;;;;;6182115;28;20073;-80
2023/05/03 12:05:06;;;;;;;7.90;7.10;;;23.50;63.20;;;;;;6186590;28;20046;-80
2023/05/03 12:08:10;;;;;;;7.20;6.55;;;23.10;63.00;;;;;;6186521;28;20485;-80
2023/05/03 12:11:12;;;;;;;11.07;6.80;;;22.90;63.90;;;;;;6180376;28;20132;-78
2023/05/03 12:14:14;;;;;;;10.90;6.20;;;22.90;64.00;;;;;;6183212;28;20053;-80
2023/05/03 12:17:33;;;;;;;14.25;7.63;;;23.10;63.60;;;;;;6183258;28;20126;-80
2023/05/03 12:20:35;;;;;;;8.95;6.97;;;23.30;62.70;;;;;;6187554;28;20070;-79
2023/05/03 12:23:38;;;;;;;6.78;6.18;;;23.40;62.70;;;;;;6182816;28;20070;-80
2023/05/03 12:26:40;;;;;;;7.10;6.40;;;23.20;62.30;;;;;;6187971;28;20053;-80
2023/05/03 12:29:42;;;;;;;6.32;4.65;;;22.90;62.70;;;;;;6186759;28;20064;-80
2023/05/03 12:32:44;;;;;;;9.40;7.57;;;23.20;62.70;;;;;;6193628;28;20536;-86
2023/05/03 12:35:45;;;;;;;7.10;6.22;;;23.20;62.40;;;;;;6198586;28;20046;-81
2023/05/03 12:38:50;;;;;;;12.45;6.55;;;22.80;63.30;;;;;;6195224;28;20065;-81
2023/05/03 12:41:52;;;;;;;10.80;7.75;;;22.70;63.40;;;;;;6193278;28;22590;-83
2023/05/03 12:44:56;;;;;;;7.68;6.85;;;22.70;63.50;;;;;;6193690;28;20060;-81
2023/05/03 12:47:58;;;;;;;7.45;5.75;;;22.80;62.70;;;;;;6193522;28;20054;-81
2023/05/03 12:51:00;;;;;;;8.25;5.35;;;23.00;62.80;;;;;;6195013;28;20039;-79
2023/05/03 12:54:05;;;;;;;6.28;4.35;;;23.10;62.20;;;;;;6193125;28;20047;-81
2023/05/03 12:57:08;;;;;;;9.35;6.28;;;23.30;63.00;;;;;;6201400;28;20042;-81
2023/05/03 13:00:12;;;;;;;6.18;5.35;;;23.50;61.30;;;;;;6198570;28;20046;-82
2023/05/03 13:03:14;;;;;;;10.45;5.10;;;23.30;61.80;;;;;;6200657;28;20133;-82
2023/05/03 13:06:15;;;;;;;5.93;4.97;;;23.40;61.40;;;;;;6199610;28;20054;-82
2023/05/03 13:09:19;;;;;;;7.30;4.88;;;23.10;61.10;;;;;;6203229;28;20039;-83
2023/05/03 13:12:21;;;;;;;9.63;4.65;;;23.30;61.40;;;;;;6202314;28;20046;-82
2023/05/03 13:15:23;;;;;;;5.50;4.53;;;23.70;61.50;;;;;;6203545;28;20054;-83
2023/05/03 13:18:25;;;;;;;7.45;4.65;;;23.70;60.50;;;;;;6203974;28;20081;-83
2023/05/03 13:21:28;;;;;;;10.40;4.82;;;23.50;61.20;;;;;;6198793;28;20050;-83
2023/05/03 13:24:31;;;;;;;5.68;3.78;;;23.80;61.70;;;;;;6198896;28;20509;-80
2023/05/03 13:27:32;;;;;;;8.00;5.68;;;24.30;60.60;;;;;;6200461;28;20052;-80
2023/05/03 13:30:34;;;;;;;7.05;4.03;;;24.40;59.20;;;;;;6197921;28;20046;-81
2023/05/03 13:33:37;;;;;;;6.35;5.00;;;24.20;59.30;;;;;;6197033;28;20042;-80
2023/05/03 13:36:39;;;;;;;5.30;4.80;;;24.10;58.90;;;;;;6196345;28;20125;-80
2023/05/03 13:39:42;;;;;;;5.85;4.15;;;24.10;59.10;;;;;;6198443;28;20165;-80
2023/05/03 13:42:43;;;;;;;8.93;4.68;;;24.50;58.80;;;;;;6198731;28;20632;-81
2023/05/03 13:45:45;;;;;;;7.97;4.22;;;24.60;57.60;;;;;;6197763;28;20068;-82
2023/05/03 13:48:47;;;;;;;4.38;3.95;;;25.00;57.00;;;;;;6198330;28;20054;-81
2023/05/03 13:51:48;;;;;;;6.75;3.95;;;25.00;57.30;;;;;;6193750;28;20054;-81
2023/05/03 13:54:53;;;;;;;4.55;3.92;;;25.20;56.80;;;;;;6194964;28;20046;-81
2023/05/03 13:57:54;;;;;;;6.78;4.97;;;25.50;56.40;;;;;;6192176;28;20049;-81
2023/05/03 14:00:56;;;;;;;5.60;4.88;;;25.40;55.50;;;;;;6194914;28;20057;-81
2023/05/03 14:03:58;;;;;;;6.93;4.30;;;25.00;55.80;;;;;;6191352;28;20057;-81
2023/05/03 14:07:02;;;;;;;4.53;3.63;;;25.00;56.10;;;;;;6194234;28;20057;-83
2023/05/03 14:10:06;;;;;;;6.00;4.15;;;24.90;55.00;;;;;;6196464;28;20070;-83
2023/05/03 14:13:07;;;;;;;10.15;4.55;;;24.50;56.00;;;;;;6197197;28;20062;-82
2023/05/03 14:16:16;;;;;;;8.95;4.15;;;24.60;56.10;;;;;;6196292;28;20069;-82
2023/05/03 14:19:17;;;;;;;4.68;4.28;;;24.50;55.40;;;;;;6198193;28;20134;-81
2023/05/03 14:22:19;;;;;;;6.40;4.28;;;24.30;55.70;;;;;;6197126;28;20042;-80
2023/05/03 14:25:22;;;;;;;8.80;4.63;;;24.30;55.60;;;;;;6195618;28;20039;-82
2023/05/03 14:28:25;;;;;;;4.80;4.32;;;24.20;55.10;;;;;;6200031;28;20057;-82
2023/05/03 14:31:26;;;;;;;8.35;4.13;;;24.00;55.60;;;;;;6199345;28;20401;-81
2023/05/03 14:34:28;;;;;;;4.32;3.92;;;24.10;55.40;;;;;;6197070;28;20070;-81
2023/05/03 14:37:30;;;;;;;6.28;5.32;;;24.40;55.20;;;;;;6197572;28;20106;-82
2023/05/03 14:40:33;;;;;;;10.90;5.53;;;24.20;54.70;;;;;;6197829;28;20046;-83
2023/05/03 14:43:35;;;;;;;5.72;3.72;;;24.00;56.50;;;;;;6195733;28;20141;-81
2023/05/03 14:46:37;;;;;;;6.78;4.35;;;24.00;56.10;;;;;;6199678;28;20489;-81
2023/05/03 14:49:40;;;;;;;6.72;5.07;;;24.30;55.60;;;;;;6193886;28;20055;-82
2023/05/03 14:52:41;;;;;;;4.68;3.88;;;24.20;55.00;;;;;;6197450;28;20052;-81
2023/05/03 14:55:45;;;;;;;6.13;4.20;;;24.20;55.70;;;;;;6196607;28;20062;-82
2023/05/03 14:58:47;;;;;;;7.70;3.78;;;24.50;55.60;;;;;;6193207;28;20062;-80
2023/05/03 15:01:51;;;;;;;5.10;4.60;;;24.90;55.20;;;;;;6195138;28;20276;-82
2023/05/03 15:04:52;;;;;;;9.05;4.40;;;25.10;54.80;;;;;;6193138;28;20058;-81
2023/05/03 15:07:54;;;;;;;10.40;4.63;;;25.20;54.40;;;;;;6193196;28;20052;-81
2023/05/03 15:10:57;;;;;;;4.88;3.65;;;25.00;54.10;;;;;;6194678;28;20050;-80
2023/05/03 15:13:59;;;;;;;6.45;3.80;;;24.80;53.80;;;;;;6194385;28;20039;-83
2023/05/03 15:17:01;;;;;;;4.93;4.28;;;24.70;54.20;;;;;;6197067;28;20053;-81
2023/05/03 15:20:04;;;;;;;6.70;4.90;;;24.80;53.50;;;;;;6199960;28;20058;-81
2023/05/03 15:23:06;;;;;;;10.30;4.43;;;24.50;53.50;;;;;;6188195;28;20062;-81
2023/05/03 15:26:09;;;;;;;6.68;4.43;;;24.20;53.60;;;;;;6192019;28;20077;-80
2023/05/03 15:29:11;;;;;;;6.78;6.07;;;24.00;54.00;;;;;;6197306;28;20178;-82
2023/05/03 15:32:12;;;;;;;5.88;3.33;;;23.90;54.50;;;;;;6195008;28;20131;-82
2023/05/03 15:35:15;;;;;;;3.42;3.00;;;24.10;54.10;;;;;;6199386;28;20043;-82
2023/05/03 15:38:17;;;;;;;8.68;4.00;;;24.20;53.30;;;;;;6192038;28;20050;-80
2023/05/03 15:41:20;;;;;;;6.38;3.45;;;23.90;53.40;;;;;;6190262;28;20065;-82
2023/05/03 15:44:22;;;;;;;7.22;3.10;;;23.70;53.80;;;;;;6191883;28;20078;-82
2023/05/03 15:47:23;;;;;;;6.70;3.72;;;23.60;53.80;;;;;;6192956;28;20116;-81
2023/05/03 15:50:25;;;;;;;4.80;3.45;;;23.50;53.40;;;;;;6194741;28;20042;-81